RAZOR11 EGXC-EGXC

Flight info

Callsign RAZOR11
Flight time 0h 56m
Altitude 24000
Route EGXC
Aircraft JAGR/M-SDE3FGHIRWY/LB1

Departure

Time 2026-04-11 19:38
Airport RAF Coningsby (EGXC)

Arrival

Time 2026-04-11 20:35
Airport RAF Coningsby (EGXC)
Time Latitude Longitude Altitude Speed Heading
2026-04-11 19:34 53.09409 -0.17809 24 ft 0 kts 23°
2026-04-11 19:34 53.09414 -0.17805 24 ft 5 kts 22°
2026-04-11 19:35 53.09450 -0.17851 25 ft 9 kts 294°
2026-04-11 19:35 53.09480 -0.17959 25 ft 12 kts 294°
2026-04-11 19:35 53.09514 -0.18092 27 ft 12 kts 293°
2026-04-11 19:35 53.09511 -0.18179 26 ft 6 kts 212°
2026-04-11 19:36 53.09484 -0.18201 26 ft 3 kts 203°
2026-04-11 19:36 53.09428 -0.18241 27 ft 17 kts 203°
2026-04-11 19:36 53.09290 -0.18341 25 ft 22 kts 203°
2026-04-11 19:37 53.08987 -0.18559 22 ft 17 kts 179°
2026-04-11 19:37 53.08954 -0.18457 24 ft 10 kts 72°
2026-04-11 19:37 53.09024 -0.18091 23 ft 66 kts 72°
2026-04-11 19:37 53.09240 -0.16987 27 ft 132 kts 72°
2026-04-11 19:38 53.09564 -0.15319 50 ft 161 kts 77°
2026-04-11 19:38 53.09905 -0.13475 236 ft 175 kts 77°
2026-04-11 19:38 53.10276 -0.11379 411 ft 200 kts 78°
2026-04-11 19:38 53.10644 -0.09176 1148 ft 197 kts 78°
2026-04-11 19:39 53.11073 -0.06874 1347 ft 226 kts 78°
2026-04-11 19:39 53.11326 -0.04228 1517 ft 237 kts 95°
2026-04-11 19:39 53.11403 -0.01504 2228 ft 237 kts 94°
2026-04-11 19:39 53.11566 0.01218 2861 ft 251 kts 77°
2026-04-11 19:40 53.12181 0.04167 2779 ft 287 kts 66°
2026-04-11 19:40 53.13086 0.07185 3430 ft 290 kts 67°
2026-04-11 19:40 53.14269 0.09960 3830 ft 312 kts 40°
2026-04-11 19:40 53.15592 0.12949 3413 ft 343 kts 76°
2026-04-11 19:41 53.16376 0.16876 3404 ft 374 kts 55°
2026-04-11 19:41 53.18341 0.19944 3030 ft 402 kts 15°
2026-04-11 19:41 53.20982 0.19368 3197 ft 383 kts 327°
2026-04-11 19:41 53.23303 0.17216 4356 ft 381 kts 325°
2026-04-11 19:42 53.24466 0.13909 4733 ft 336 kts 256°
2026-04-11 19:42 53.23832 0.10164 5047 ft 347 kts 247°
2026-04-11 19:42 53.22832 0.06545 6090 ft 339 kts 242°
2026-04-11 19:42 53.21795 0.03057 7257 ft 332 kts 242°
2026-04-11 19:43 53.20774 -0.00345 8387 ft 324 kts 242°
2026-04-11 19:43 53.19773 -0.03673 9480 ft 317 kts 242°
2026-04-11 19:43 53.18795 -0.06917 10435 ft 309 kts 242°
2026-04-11 19:43 53.17844 -0.10076 11308 ft 301 kts 242°
2026-04-11 19:44 53.16920 -0.13157 12138 ft 293 kts 242°
2026-04-11 19:44 53.16015 -0.16203 12670 ft 296 kts 242°
2026-04-11 19:44 53.15093 -0.19317 13013 ft 302 kts 242°
2026-04-11 19:44 53.14155 -0.22467 13372 ft 306 kts 242°
2026-04-11 19:45 53.13203 -0.25658 13729 ft 309 kts 242°
2026-04-11 19:45 53.12254 -0.28832 14066 ft 311 kts 242°
2026-04-11 19:45 53.11287 -0.32068 14424 ft 313 kts 242°
2026-04-11 19:45 53.10315 -0.35318 14788 ft 314 kts 242°
2026-04-11 19:46 53.09340 -0.38579 15148 ft 314 kts 242°
2026-04-11 19:46 53.08368 -0.41834 15504 ft 314 kts 242°
2026-04-11 19:46 53.07392 -0.45098 15852 ft 314 kts 242°
2026-04-11 19:46 53.06419 -0.48347 16188 ft 314 kts 242°
2026-04-11 19:47 53.05449 -0.51590 16519 ft 313 kts 242°
2026-04-11 19:47 53.04482 -0.54817 16849 ft 312 kts 242°
2026-04-11 19:47 53.03517 -0.58038 17157 ft 310 kts 242°
2026-04-11 19:47 53.02558 -0.61240 17454 ft 309 kts 242°
2026-04-11 19:48 53.01601 -0.64423 17743 ft 307 kts 242°
2026-04-11 19:48 53.00650 -0.67587 18015 ft 306 kts 242°
2026-04-11 19:48 52.99714 -0.70696 18239 ft 304 kts 242°
2026-04-11 19:48 52.98774 -0.73821 18452 ft 302 kts 242°
2026-04-11 19:49 52.97826 -0.76970 18446 ft 306 kts 242°
2026-04-11 19:49 52.96879 -0.80119 18441 ft 304 kts 242°
2026-04-11 19:49 52.95937 -0.83248 18439 ft 301 kts 242°
2026-04-11 19:49 52.95002 -0.86348 18437 ft 299 kts 242°
2026-04-11 19:50 52.94073 -0.89426 18432 ft 298 kts 241°
2026-04-11 19:50 52.93145 -0.92489 18433 ft 296 kts 242°
2026-04-11 19:50 52.92221 -0.95537 18428 ft 295 kts 242°
2026-04-11 19:50 52.91308 -0.98547 18416 ft 292 kts 242°
2026-04-11 19:51 52.90391 -1.01561 18423 ft 296 kts 242°
2026-04-11 19:51 52.89465 -1.04592 18430 ft 301 kts 241°
2026-04-11 19:51 52.88508 -1.07712 18427 ft 306 kts 242°
2026-04-11 19:51 52.87533 -1.10881 18429 ft 312 kts 242°
2026-04-11 19:52 52.86537 -1.14110 18426 ft 318 kts 242°
2026-04-11 19:52 52.85520 -1.17391 18434 ft 324 kts 241°
2026-04-11 19:52 52.84476 -1.20740 18435 ft 330 kts 241°
2026-04-11 19:52 52.83408 -1.24153 18435 ft 337 kts 242°
2026-04-11 19:53 52.82316 -1.27626 18428 ft 344 kts 241°
2026-04-11 19:53 52.81198 -1.31162 18427 ft 350 kts 241°
2026-04-11 19:53 52.80055 -1.34759 18429 ft 356 kts 241°
2026-04-11 19:53 52.78889 -1.38411 18430 ft 362 kts 241°
2026-04-11 19:54 52.77699 -1.42116 18434 ft 367 kts 241°
2026-04-11 19:54 52.76490 -1.45869 18431 ft 373 kts 241°
2026-04-11 19:54 52.75352 -1.49737 18383 ft 379 kts 253°
2026-04-11 19:54 52.74996 -1.54128 17921 ft 398 kts 268°
2026-04-11 19:55 52.75154 -1.58787 17578 ft 409 kts 270°
2026-04-11 19:55 52.75332 -1.63489 17641 ft 413 kts 270°
2026-04-11 19:55 52.75501 -1.68196 17651 ft 418 kts 270°
2026-04-11 19:55 52.75668 -1.73010 17657 ft 422 kts 270°
2026-04-11 19:56 52.75832 -1.77874 17657 ft 427 kts 270°
2026-04-11 19:56 52.75992 -1.82786 17665 ft 430 kts 270°
2026-04-11 19:56 52.76144 -1.87648 17677 ft 434 kts 270°
2026-04-11 19:56 52.76295 -1.92641 17676 ft 437 kts 270°
2026-04-11 19:57 52.76442 -1.97677 17677 ft 440 kts 270°
2026-04-11 19:57 52.76585 -2.02756 17670 ft 443 kts 270°
2026-04-11 19:57 52.76722 -2.07850 17666 ft 446 kts 270°
2026-04-11 19:57 52.76854 -2.12987 17667 ft 448 kts 270°
2026-04-11 19:58 52.76981 -2.18155 17659 ft 451 kts 270°
2026-04-11 19:58 52.77101 -2.23333 17667 ft 453 kts 270°
2026-04-11 19:58 52.77218 -2.28544 17654 ft 454 kts 270°
2026-04-11 19:58 52.77331 -2.33766 17643 ft 456 kts 270°
2026-04-11 19:59 52.77442 -2.39022 17649 ft 458 kts 270°
2026-04-11 19:59 52.77547 -2.44216 17646 ft 459 kts 270°
2026-04-11 19:59 52.77651 -2.49502 17648 ft 461 kts 270°
2026-04-11 19:59 52.77753 -2.54803 17647 ft 462 kts 270°
2026-04-11 20:00 52.77853 -2.60120 17646 ft 464 kts 270°
2026-04-11 20:00 52.77951 -2.65415 17336 ft 449 kts 270°
2026-04-11 20:00 52.78030 -2.70239 16353 ft 393 kts 269°
2026-04-11 20:00 52.78428 -2.74456 15183 ft 353 kts 279°
2026-04-11 20:01 52.78975 -2.78143 13784 ft 316 kts 286°
2026-04-11 20:01 52.79772 -2.81443 12383 ft 294 kts 285°
2026-04-11 20:01 52.80431 -2.84390 11512 ft 260 kts 281°
2026-04-11 20:01 52.81104 -2.87061 10383 ft 246 kts 284°
2026-04-11 20:02 52.81808 -2.89913 8798 ft 294 kts 284°
2026-04-11 20:02 52.82566 -2.93285 7863 ft 321 kts 277°
2026-04-11 20:02 52.83232 -2.96895 6934 ft 334 kts 279°
2026-04-11 20:02 52.83901 -3.00577 6965 ft 331 kts 280°
2026-04-11 20:03 52.84579 -3.04179 7122 ft 326 kts 280°
2026-04-11 20:03 52.85237 -3.07778 6956 ft 325 kts 274°
2026-04-11 20:03 52.85765 -3.11521 6177 ft 344 kts 277°
2026-04-11 20:03 52.86353 -3.15448 5547 ft 361 kts 278°
2026-04-11 20:04 52.87002 -3.19553 4957 ft 375 kts 281°
2026-04-11 20:04 52.87986 -3.23605 4654 ft 378 kts 282°
2026-04-11 20:04 52.88851 -3.27692 4451 ft 375 kts 282°
2026-04-11 20:04 52.89700 -3.31737 4102 ft 374 kts 278°
2026-04-11 20:05 52.90435 -3.35889 3772 ft 377 kts 279°
2026-04-11 20:05 52.91171 -3.40107 3298 ft 393 kts 278°
2026-04-11 20:05 52.91700 -3.44697 3068 ft 416 kts 271°
2026-04-11 20:05 52.91942 -3.49515 3118 ft 426 kts 265°
2026-04-11 20:06 52.91694 -3.54498 2579 ft 445 kts 257°
2026-04-11 20:06 52.90605 -3.59288 1103 ft 457 kts 221°
2026-04-11 20:06 52.88280 -3.62840 751 ft 453 kts 216°
2026-04-11 20:06 52.86209 -3.66600 759 ft 437 kts 226°
2026-04-11 20:07 52.84123 -3.70042 963 ft 407 kts 194°
2026-04-11 20:07 52.81716 -3.71959 1035 ft 401 kts 220°
2026-04-11 20:07 52.79474 -3.74735 1092 ft 414 kts 223°
2026-04-11 20:07 52.77619 -3.78532 1024 ft 430 kts 232°
2026-04-11 20:08 52.76229 -3.82997 966 ft 443 kts 237°
2026-04-11 20:08 52.73908 -3.86044 1166 ft 424 kts 198°
2026-04-11 20:08 52.71327 -3.84697 1737 ft 376 kts 184°
2026-04-11 20:08 52.69189 -3.86789 1134 ft 383 kts 221°
2026-04-11 20:09 52.67246 -3.90047 879 ft 412 kts 228°
2026-04-11 20:09 52.65397 -3.93796 734 ft 429 kts 232°
2026-04-11 20:09 52.63551 -3.97683 781 ft 435 kts 231°
2026-04-11 20:09 52.61792 -4.01644 1047 ft 438 kts 238°
2026-04-11 20:10 52.59707 -4.04696 2524 ft 392 kts 192°
2026-04-11 20:11 52.56342 -3.88158 4617 ft 471 kts 77°
2026-04-11 20:11 52.57210 -3.84908 2819 ft 494 kts 51°
2026-04-11 20:11 52.60129 -3.81810 1020 ft 508 kts 52°
2026-04-11 20:11 52.61944 -3.76909 942 ft 497 kts 62°
2026-04-11 20:12 52.63874 -3.72274 724 ft 492 kts 29°
2026-04-11 20:12 52.67044 -3.70567 765 ft 481 kts 31°
2026-04-11 20:12 52.69999 -3.68592 1067 ft 449 kts 353°
2026-04-11 20:12 52.72651 -3.66966 1063 ft 400 kts 63°
2026-04-11 20:13 52.74615 -3.64089 1136 ft 377 kts 47°
2026-04-11 20:13 52.76930 -3.62554 1236 ft 373 kts 348°
2026-04-11 20:13 52.78424 -3.65167 1735 ft 281 kts 245°
2026-04-11 20:13 52.78119 -3.68150 2501 ft 237 kts 212°
2026-04-11 20:14 52.76737 -3.69217 3759 ft 225 kts 191°
2026-04-11 20:14 52.75182 -3.68480 4455 ft 267 kts 155°
2026-04-11 20:14 52.73869 -3.65825 4357 ft 324 kts 111°
2026-04-11 20:14 52.73734 -3.61988 5317 ft 356 kts 88°
2026-04-11 20:15 52.74395 -3.57828 5449 ft 394 kts 73°
2026-04-11 20:15 52.75260 -3.53468 6092 ft 405 kts 77°
2026-04-11 20:15 52.76082 -3.48970 6880 ft 413 kts 76°
2026-04-11 20:15 52.76917 -3.44386 7730 ft 419 kts 76°
2026-04-11 20:16 52.77751 -3.39740 8608 ft 423 kts 76°
2026-04-11 20:16 52.78577 -3.35065 9507 ft 425 kts 76°
2026-04-11 20:16 52.79397 -3.30366 10331 ft 426 kts 76°
2026-04-11 20:16 52.80208 -3.25665 11149 ft 425 kts 76°
2026-04-11 20:17 52.80998 -3.21024 11948 ft 424 kts 76°
2026-04-11 20:17 52.81784 -3.16340 12770 ft 422 kts 76°
2026-04-11 20:17 52.82555 -3.11690 13580 ft 419 kts 76°
2026-04-11 20:17 52.83311 -3.07054 14268 ft 415 kts 76°
2026-04-11 20:18 52.84053 -3.02459 14953 ft 411 kts 76°
2026-04-11 20:18 52.84789 -2.97849 15633 ft 407 kts 76°
2026-04-11 20:18 52.85491 -2.93404 16276 ft 403 kts 77°
2026-04-11 20:18 52.86187 -2.88939 16902 ft 398 kts 77°
2026-04-11 20:19 52.86680 -2.84470 17454 ft 393 kts 82°
2026-04-11 20:19 52.87103 -2.79941 17582 ft 404 kts 83°
2026-04-11 20:19 52.87528 -2.75293 17631 ft 413 kts 83°
2026-04-11 20:19 52.87957 -2.70545 17719 ft 421 kts 83°
2026-04-11 20:20 52.88391 -2.65698 17842 ft 429 kts 83°
2026-04-11 20:20 52.88829 -2.60779 17986 ft 435 kts 83°
2026-04-11 20:20 52.89271 -2.55791 18134 ft 440 kts 83°
2026-04-11 20:20 52.89714 -2.50747 18293 ft 445 kts 83°
2026-04-11 20:21 52.90159 -2.45655 18468 ft 449 kts 83°
2026-04-11 20:21 52.90606 -2.40516 18651 ft 452 kts 83°
2026-04-11 20:21 52.91057 -2.35309 18674 ft 461 kts 83°
2026-04-11 20:21 52.91513 -2.29999 18685 ft 468 kts 83°
2026-04-11 20:22 52.91973 -2.24615 18696 ft 475 kts 83°
2026-04-11 20:22 52.92438 -2.19157 18703 ft 482 kts 83°
2026-04-11 20:22 52.92911 -2.13615 18707 ft 489 kts 83°
2026-04-11 20:22 52.93392 -2.08003 18703 ft 495 kts 83°
2026-04-11 20:23 52.93875 -2.02383 18712 ft 500 kts 83°
2026-04-11 20:23 52.94372 -1.96643 18714 ft 505 kts 83°
2026-04-11 20:23 52.94877 -1.90850 18713 ft 510 kts 83°
2026-04-11 20:23 52.95389 -1.85011 18721 ft 514 kts 83°
2026-04-11 20:24 52.95910 -1.79119 18725 ft 518 kts 83°
2026-04-11 20:24 52.96438 -1.73186 18730 ft 521 kts 83°
2026-04-11 20:24 52.96973 -1.67209 18733 ft 524 kts 83°
2026-04-11 20:24 52.97513 -1.61202 18736 ft 528 kts 83°
2026-04-11 20:25 52.98058 -1.55160 18740 ft 530 kts 83°
2026-04-11 20:25 52.98604 -1.49103 18743 ft 533 kts 83°
2026-04-11 20:25 52.99153 -1.43010 18742 ft 535 kts 83°
2026-04-11 20:25 52.99700 -1.36965 18741 ft 537 kts 83°
2026-04-11 20:26 53.00258 -1.30809 18740 ft 539 kts 83°
2026-04-11 20:26 53.00816 -1.24650 18735 ft 541 kts 83°
2026-04-11 20:26 53.01377 -1.18469 18732 ft 542 kts 83°
2026-04-11 20:26 53.01940 -1.12268 18732 ft 543 kts 83°
2026-04-11 20:27 53.02536 -1.06054 18729 ft 545 kts 82°
2026-04-11 20:27 53.03182 -0.99845 18726 ft 546 kts 82°
2026-04-11 20:27 53.03854 -0.93629 18742 ft 547 kts 82°
2026-04-11 20:27 53.04543 -0.87393 18744 ft 548 kts 82°
2026-04-11 20:28 53.05238 -0.81158 18746 ft 549 kts 82°
2026-04-11 20:28 53.05937 -0.74926 18749 ft 550 kts 82°
2026-04-11 20:28 53.06643 -0.68664 18751 ft 551 kts 82°
2026-04-11 20:28 53.07352 -0.62399 18756 ft 551 kts 82°
2026-04-11 20:29 53.08065 -0.56135 18750 ft 552 kts 82°
2026-04-11 20:29 53.08696 -0.49888 18022 ft 519 kts 94°
2026-04-11 20:29 53.08688 -0.44140 12569 ft 458 kts 95°
2026-04-11 20:29 53.08987 -0.38586 7044 ft 478 kts 87°
2026-04-11 20:30 53.09182 -0.33160 3177 ft 455 kts 91°
2026-04-11 20:30 53.09383 -0.28531 2879 ft 361 kts 90°
2026-04-11 20:30 53.09506 -0.24800 2618 ft 288 kts 96°
2026-04-11 20:30 53.09443 -0.21713 2180 ft 248 kts 115°
2026-04-11 20:31 53.08932 -0.19117 2012 ft 227 kts 116°
2026-04-11 20:31 53.08283 -0.16991 1641 ft 178 kts 150°
2026-04-11 20:31 53.07478 -0.15756 1435 ft 144 kts 139°
2026-04-11 20:31 53.07021 -0.14137 1539 ft 169 kts 110°
2026-04-11 20:32 53.07076 -0.12107 1847 ft 186 kts 91°
2026-04-11 20:32 53.07270 -0.09917 1981 ft 188 kts 90°
2026-04-11 20:32 53.07481 -0.07848 1949 ft 185 kts 90°
2026-04-11 20:32 53.08103 -0.05977 1901 ft 187 kts 27°
2026-04-11 20:33 53.09312 -0.05609 1620 ft 184 kts 348°
2026-04-11 20:33 53.10424 -0.06378 1798 ft 171 kts 303°
2026-04-11 20:33 53.10854 -0.07951 1392 ft 127 kts 257°
2026-04-11 20:33 53.10770 -0.09471 878 ft 148 kts 248°
2026-04-11 20:34 53.10407 -0.11231 621 ft 157 kts 244°
2026-04-11 20:34 53.10081 -0.12751 263 ft 133 kts 245°
2026-04-11 20:34 53.09776 -0.14284 140 ft 149 kts 245°
2026-04-11 20:34 53.09481 -0.15791 28 ft 113 kts 252°
2026-04-11 20:35 53.09298 -0.16727 26 ft 57 kts 251°
2026-04-11 20:35 53.09194 -0.17238 25 ft 33 kts 251°
2026-04-11 20:35 53.09130 -0.17546 26 ft 24 kts 243°
2026-04-11 20:35 53.09051 -0.17474 24 ft 15 kts 113°
2026-04-11 20:36 53.09018 -0.17393 26 ft 7 kts 304°
2026-04-11 20:36 53.09049 -0.17469 24 ft 11 kts 296°
2026-04-11 20:36 53.09107 -0.17722 25 ft 32 kts 288°
2026-04-11 20:36 53.09191 -0.18007 24 ft 21 kts 316°
2026-04-11 20:37 53.09245 -0.18012 23 ft 0 kts
2026-04-11 20:37 53.09418 -0.17836 25 ft 0 kts 23°